sensor_id;sensor_type;location;lat;lon;timestamp;pressure;altitude;pressure_sealevel;temperature
13570;BMP180;6856;51.460;7.158;2023-08-17T00:01:07;100767.00;;;23.70
13570;BMP180;6856;51.460;7.158;2023-08-17T00:03:40;100761.00;;;23.60
13570;BMP180;6856;51.460;7.158;2023-08-17T00:06:14;100770.00;;;23.60
13570;BMP180;6856;51.460;7.158;2023-08-17T00:08:48;100770.00;;;23.50
13570;BMP180;6856;51.460;7.158;2023-08-17T00:11:23;100779.00;;;23.40
13570;BMP180;6856;51.460;7.158;2023-08-17T00:13:58;100774.00;;;23.40
13570;BMP180;6856;51.460;7.158;2023-08-17T00:16:32;100760.00;;;23.30
13570;BMP180;6856;51.460;7.158;2023-08-17T00:19:06;100768.00;;;23.30
13570;BMP180;6856;51.460;7.158;2023-08-17T00:21:40;100782.00;;;23.20
13570;BMP180;6856;51.460;7.158;2023-08-17T00:24:14;100788.00;;;23.20
13570;BMP180;6856;51.460;7.158;2023-08-17T00:26:48;100791.00;;;23.20
13570;BMP180;6856;51.460;7.158;2023-08-17T00:29:23;100799.00;;;23.20
13570;BMP180;6856;51.460;7.158;2023-08-17T00:31:56;100806.00;;;23.20
13570;BMP180;6856;51.460;7.158;2023-08-17T00:34:30;100802.00;;;23.20
13570;BMP180;6856;51.460;7.158;2023-08-17T00:37:04;100800.00;;;23.20
13570;BMP180;6856;51.460;7.158;2023-08-17T00:39:38;100794.00;;;23.20
13570;BMP180;6856;51.460;7.158;2023-08-17T00:42:12;100793.00;;;23.30
13570;BMP180;6856;51.460;7.158;2023-08-17T00:44:47;100791.00;;;23.30
13570;BMP180;6856;51.460;7.158;2023-08-17T00:47:21;100789.00;;;23.30
13570;BMP180;6856;51.460;7.158;2023-08-17T00:49:56;100790.00;;;23.30
13570;BMP180;6856;51.460;7.158;2023-08-17T00:52:32;100792.00;;;23.30
13570;BMP180;6856;51.460;7.158;2023-08-17T00:55:07;100797.00;;;23.30
13570;BMP180;6856;51.460;7.158;2023-08-17T00:57:44;100804.00;;;23.30
13570;BMP180;6856;51.460;7.158;2023-08-17T01:00:19;100803.00;;;23.30
13570;BMP180;6856;51.460;7.158;2023-08-17T01:02:54;100800.00;;;23.30
13570;BMP180;6856;51.460;7.158;2023-08-17T01:05:30;100793.00;;;23.30
13570;BMP180;6856;51.460;7.158;2023-08-17T01:08:05;100791.00;;;23.30
13570;BMP180;6856;51.460;7.158;2023-08-17T01:10:52;100790.00;;;23.30
13570;BMP180;6856;51.460;7.158;2023-08-17T01:13:38;100790.00;;;23.30
13570;BMP180;6856;51.460;7.158;2023-08-17T01:16:24;100786.00;;;23.20
13570;BMP180;6856;51.460;7.158;2023-08-17T01:19:05;100786.00;;;23.20
13570;BMP180;6856;51.460;7.158;2023-08-17T01:21:44;100775.00;;;23.20
13570;BMP180;6856;51.460;7.158;2023-08-17T01:24:20;100777.00;;;23.10
13570;BMP180;6856;51.460;7.158;2023-08-17T01:26:54;100781.00;;;23.10
13570;BMP180;6856;51.460;7.158;2023-08-17T01:29:28;100776.00;;;23.10
13570;BMP180;6856;51.460;7.158;2023-08-17T01:32:09;100784.00;;;23.10
13570;BMP180;6856;51.460;7.158;2023-08-17T01:34:53;100764.00;;;23.10
13570;BMP180;6856;51.460;7.158;2023-08-17T01:37:33;100767.00;;;23.10
13570;BMP180;6856;51.460;7.158;2023-08-17T01:40:11;100747.00;;;23.10
13570;BMP180;6856;51.460;7.158;2023-08-17T01:42:46;100745.00;;;23.10
13570;BMP180;6856;51.460;7.158;2023-08-17T01:45:20;100743.00;;;23.10
13570;BMP180;6856;51.460;7.158;2023-08-17T01:47:55;100747.00;;;23.10
13570;BMP180;6856;51.460;7.158;2023-08-17T01:50:29;100744.00;;;23.10
13570;BMP180;6856;51.460;7.158;2023-08-17T01:53:03;100745.00;;;23.10
13570;BMP180;6856;51.460;7.158;2023-08-17T01:55:38;100743.00;;;23.10
13570;BMP180;6856;51.460;7.158;2023-08-17T01:58:12;100745.00;;;23.10
13570;BMP180;6856;51.460;7.158;2023-08-17T02:00:45;100742.00;;;23.10
13570;BMP180;6856;51.460;7.158;2023-08-17T02:03:19;100736.00;;;23.10
13570;BMP180;6856;51.460;7.158;2023-08-17T02:05:53;100731.00;;;23.10
13570;BMP180;6856;51.460;7.158;2023-08-17T02:08:29;100717.00;;;23.10
13570;BMP180;6856;51.460;7.158;2023-08-17T02:11:04;100724.00;;;23.10
13570;BMP180;6856;51.460;7.158;2023-08-17T02:13:38;100730.00;;;23.10
13570;BMP180;6856;51.460;7.158;2023-08-17T02:16:12;100745.00;;;23.10
13570;BMP180;6856;51.460;7.158;2023-08-17T02:18:46;100734.00;;;23.20
13570;BMP180;6856;51.460;7.158;2023-08-17T02:21:20;100723.00;;;23.20
13570;BMP180;6856;51.460;7.158;2023-08-17T02:23:54;100710.00;;;23.20
13570;BMP180;6856;51.460;7.158;2023-08-17T02:26:31;100728.00;;;23.20
13570;BMP180;6856;51.460;7.158;2023-08-17T02:29:05;100738.00;;;23.20
13570;BMP180;6856;51.460;7.158;2023-08-17T02:31:38;100730.00;;;23.20
13570;BMP180;6856;51.460;7.158;2023-08-17T02:34:12;100730.00;;;23.20
13570;BMP180;6856;51.460;7.158;2023-08-17T02:36:46;100719.00;;;23.20
13570;BMP180;6856;51.460;7.158;2023-08-17T02:39:19;100721.00;;;23.20
13570;BMP180;6856;51.460;7.158;2023-08-17T02:41:55;100725.00;;;23.20
13570;BMP180;6856;51.460;7.158;2023-08-17T02:44:28;100728.00;;;23.20
13570;BMP180;6856;51.460;7.158;2023-08-17T02:47:02;100727.00;;;23.20
13570;BMP180;6856;51.460;7.158;2023-08-17T02:49:36;100734.00;;;23.20
13570;BMP180;6856;51.460;7.158;2023-08-17T02:52:10;100735.00;;;23.20
13570;BMP180;6856;51.460;7.158;2023-08-17T02:54:43;100731.00;;;23.20
13570;BMP180;6856;51.460;7.158;2023-08-17T02:57:20;100730.00;;;23.30
13570;BMP180;6856;51.460;7.158;2023-08-17T02:59:54;100732.00;;;23.20
13570;BMP180;6856;51.460;7.158;2023-08-17T03:02:28;100732.00;;;23.20
13570;BMP180;6856;51.460;7.158;2023-08-17T03:05:03;100733.00;;;23.20
13570;BMP180;6856;51.460;7.158;2023-08-17T03:07:37;100735.00;;;23.20
13570;BMP180;6856;51.460;7.158;2023-08-17T03:10:10;100731.00;;;23.10
13570;BMP180;6856;51.460;7.158;2023-08-17T03:12:46;100728.00;;;23.10
13570;BMP180;6856;51.460;7.158;2023-08-17T03:15:20;100711.00;;;23.10
13570;BMP180;6856;51.460;7.158;2023-08-17T03:17:54;100725.00;;;23.10
13570;BMP180;6856;51.460;7.158;2023-08-17T03:20:27;100729.00;;;23.00
13570;BMP180;6856;51.460;7.158;2023-08-17T03:23:02;100736.00;;;23.00
13570;BMP180;6856;51.460;7.158;2023-08-17T03:25:38;100735.00;;;23.00
13570;BMP180;6856;51.460;7.158;2023-08-17T03:28:13;100734.00;;;23.00
13570;BMP180;6856;51.460;7.158;2023-08-17T03:30:47;100739.00;;;23.00
13570;BMP180;6856;51.460;7.158;2023-08-17T03:33:20;100733.00;;;23.00
13570;BMP180;6856;51.460;7.158;2023-08-17T03:35:54;100740.00;;;23.00
13570;BMP180;6856;51.460;7.158;2023-08-17T03:38:28;100739.00;;;23.00
13570;BMP180;6856;51.460;7.158;2023-08-17T03:41:02;100739.00;;;23.00
13570;BMP180;6856;51.460;7.158;2023-08-17T03:43:38;100736.00;;;23.00
13570;BMP180;6856;51.460;7.158;2023-08-17T03:46:11;100725.00;;;22.90
13570;BMP180;6856;51.460;7.158;2023-08-17T03:48:45;100732.00;;;22.90
13570;BMP180;6856;51.460;7.158;2023-08-17T03:51:18;100733.00;;;22.90
13570;BMP180;6856;51.460;7.158;2023-08-17T03:53:52;100732.00;;;22.90
13570;BMP180;6856;51.460;7.158;2023-08-17T03:56:26;100726.00;;;22.80
13570;BMP180;6856;51.460;7.158;2023-08-17T03:59:01;100727.00;;;22.80
13570;BMP180;6856;51.460;7.158;2023-08-17T04:01:35;100729.00;;;22.80
13570;BMP180;6856;51.460;7.158;2023-08-17T04:04:09;100732.00;;;22.70
13570;BMP180;6856;51.460;7.158;2023-08-17T04:06:42;100733.00;;;22.70
13570;BMP180;6856;51.460;7.158;2023-08-17T04:09:16;100734.00;;;22.70
13570;BMP180;6856;51.460;7.158;2023-08-17T04:11:50;100728.00;;;22.70
13570;BMP180;6856;51.460;7.158;2023-08-17T04:14:25;100727.00;;;22.60
13570;BMP180;6856;51.460;7.158;2023-08-17T04:16:59;100727.00;;;22.60
13570;BMP180;6856;51.460;7.158;2023-08-17T04:19:32;100732.00;;;22.60
13570;BMP180;6856;51.460;7.158;2023-08-17T04:22:06;100736.00;;;22.60
13570;BMP180;6856;51.460;7.158;2023-08-17T04:24:39;100741.00;;;22.50
13570;BMP180;6856;51.460;7.158;2023-08-17T04:27:13;100742.00;;;22.50
13570;BMP180;6856;51.460;7.158;2023-08-17T04:29:49;100737.00;;;22.50
13570;BMP180;6856;51.460;7.158;2023-08-17T04:32:22;100735.00;;;22.50
13570;BMP180;6856;51.460;7.158;2023-08-17T04:34:56;100740.00;;;22.50
13570;BMP180;6856;51.460;7.158;2023-08-17T04:37:30;100739.00;;;22.50
13570;BMP180;6856;51.460;7.158;2023-08-17T04:40:06;100747.00;;;22.50
13570;BMP180;6856;51.460;7.158;2023-08-17T04:42:40;100744.00;;;22.50
13570;BMP180;6856;51.460;7.158;2023-08-17T04:45:17;100743.00;;;22.50
13570;BMP180;6856;51.460;7.158;2023-08-17T04:47:51;100742.00;;;22.50
13570;BMP180;6856;51.460;7.158;2023-08-17T04:50:25;100741.00;;;22.50
13570;BMP180;6856;51.460;7.158;2023-08-17T04:52:58;100746.00;;;22.50
13570;BMP180;6856;51.460;7.158;2023-08-17T04:55:32;100742.00;;;22.50
13570;BMP180;6856;51.460;7.158;2023-08-17T04:58:07;100738.00;;;22.50
13570;BMP180;6856;51.460;7.158;2023-08-17T05:00:42;100740.00;;;22.50
13570;BMP180;6856;51.460;7.158;2023-08-17T05:03:16;100741.00;;;22.60
13570;BMP180;6856;51.460;7.158;2023-08-17T05:06:04;100739.00;;;22.60
13570;BMP180;6856;51.460;7.158;2023-08-17T05:08:38;100744.00;;;22.60
13570;BMP180;6856;51.460;7.158;2023-08-17T05:11:11;100747.00;;;22.60
13570;BMP180;6856;51.460;7.158;2023-08-17T05:13:45;100753.00;;;22.60
13570;BMP180;6856;51.460;7.158;2023-08-17T05:16:21;100750.00;;;22.60
13570;BMP180;6856;51.460;7.158;2023-08-17T05:18:54;100742.00;;;22.60
13570;BMP180;6856;51.460;7.158;2023-08-17T05:21:29;100745.00;;;22.60
13570;BMP180;6856;51.460;7.158;2023-08-17T05:24:04;100747.00;;;22.70
13570;BMP180;6856;51.460;7.158;2023-08-17T05:26:38;100749.00;;;22.70
13570;BMP180;6856;51.460;7.158;2023-08-17T05:29:12;100753.00;;;22.70
13570;BMP180;6856;51.460;7.158;2023-08-17T05:31:47;100741.00;;;22.70
13570;BMP180;6856;51.460;7.158;2023-08-17T05:34:23;100751.00;;;22.70
13570;BMP180;6856;51.460;7.158;2023-08-17T05:36:57;100754.00;;;22.70
13570;BMP180;6856;51.460;7.158;2023-08-17T05:39:31;100765.00;;;22.70
13570;BMP180;6856;51.460;7.158;2023-08-17T05:42:07;100763.00;;;22.70
13570;BMP180;6856;51.460;7.158;2023-08-17T05:44:43;100763.00;;;22.70
13570;BMP180;6856;51.460;7.158;2023-08-17T05:47:18;100752.00;;;22.70
13570;BMP180;6856;51.460;7.158;2023-08-17T05:49:52;100755.00;;;22.70
13570;BMP180;6856;51.460;7.158;2023-08-17T05:52:25;100757.00;;;22.70
13570;BMP180;6856;51.460;7.158;2023-08-17T05:54:59;100762.00;;;22.70
13570;BMP180;6856;51.460;7.158;2023-08-17T05:57:33;100757.00;;;22.70
13570;BMP180;6856;51.460;7.158;2023-08-17T06:00:08;100759.00;;;22.70
13570;BMP180;6856;51.460;7.158;2023-08-17T06:02:48;100757.00;;;22.70
13570;BMP180;6856;51.460;7.158;2023-08-17T06:05:23;100761.00;;;22.70
13570;BMP180;6856;51.460;7.158;2023-08-17T06:07:59;100757.00;;;22.60
13570;BMP180;6856;51.460;7.158;2023-08-17T06:10:32;100768.00;;;22.60
13570;BMP180;6856;51.460;7.158;2023-08-17T06:13:06;100760.00;;;22.60
13570;BMP180;6856;51.460;7.158;2023-08-17T06:15:39;100753.00;;;22.60
13570;BMP180;6856;51.460;7.158;2023-08-17T06:18:15;100756.00;;;22.60
13570;BMP180;6856;51.460;7.158;2023-08-17T06:20:48;100755.00;;;22.60
13570;BMP180;6856;51.460;7.158;2023-08-17T06:23:24;100763.00;;;22.50
13570;BMP180;6856;51.460;7.158;2023-08-17T06:26:00;100758.00;;;22.50
13570;BMP180;6856;51.460;7.158;2023-08-17T06:28:34;100754.00;;;22.50
13570;BMP180;6856;51.460;7.158;2023-08-17T06:31:08;100754.00;;;22.50
13570;BMP180;6856;51.460;7.158;2023-08-17T06:33:43;100756.00;;;22.50
13570;BMP180;6856;51.460;7.158;2023-08-17T06:36:17;100747.00;;;22.50
13570;BMP180;6856;51.460;7.158;2023-08-17T06:38:51;100760.00;;;22.40
13570;BMP180;6856;51.460;7.158;2023-08-17T06:41:25;100765.00;;;22.40
13570;BMP180;6856;51.460;7.158;2023-08-17T06:43:59;100762.00;;;22.40
13570;BMP180;6856;51.460;7.158;2023-08-17T06:46:32;100772.00;;;22.40
13570;BMP180;6856;51.460;7.158;2023-08-17T06:49:08;100769.00;;;22.40
13570;BMP180;6856;51.460;7.158;2023-08-17T06:51:42;100771.00;;;22.40
13570;BMP180;6856;51.460;7.158;2023-08-17T06:54:16;100764.00;;;22.40
13570;BMP180;6856;51.460;7.158;2023-08-17T06:56:49;100769.00;;;22.40
13570;BMP180;6856;51.460;7.158;2023-08-17T06:59:23;100769.00;;;22.40
13570;BMP180;6856;51.460;7.158;2023-08-17T07:01:57;100773.00;;;22.40
13570;BMP180;6856;51.460;7.158;2023-08-17T07:04:33;100774.00;;;22.40
13570;BMP180;6856;51.460;7.158;2023-08-17T07:07:06;100772.00;;;22.40
13570;BMP180;6856;51.460;7.158;2023-08-17T07:09:40;100777.00;;;22.40
13570;BMP180;6856;51.460;7.158;2023-08-17T07:12:14;100780.00;;;22.40
13570;BMP180;6856;51.460;7.158;2023-08-17T07:14:48;100778.00;;;22.40
13570;BMP180;6856;51.460;7.158;2023-08-17T07:17:22;100779.00;;;22.50
13570;BMP180;6856;51.460;7.158;2023-08-17T07:19:57;100778.00;;;22.40
13570;BMP180;6856;51.460;7.158;2023-08-17T07:22:48;100781.00;;;22.40
13570;BMP180;6856;51.460;7.158;2023-08-17T07:25:21;100780.00;;;22.40
13570;BMP180;6856;51.460;7.158;2023-08-17T07:27:55;100779.00;;;22.40
13570;BMP180;6856;51.460;7.158;2023-08-17T07:30:29;100773.00;;;22.50
13570;BMP180;6856;51.460;7.158;2023-08-17T07:33:03;100780.00;;;22.50
13570;BMP180;6856;51.460;7.158;2023-08-17T07:35:38;100766.00;;;22.50
13570;BMP180;6856;51.460;7.158;2023-08-17T07:38:12;100779.00;;;22.50
13570;BMP180;6856;51.460;7.158;2023-08-17T07:40:46;100784.00;;;22.50
13570;BMP180;6856;51.460;7.158;2023-08-17T07:43:20;100790.00;;;22.50
13570;BMP180;6856;51.460;7.158;2023-08-17T07:45:54;100784.00;;;22.50
13570;BMP180;6856;51.460;7.158;2023-08-17T07:48:28;100787.00;;;22.50
13570;BMP180;6856;51.460;7.158;2023-08-17T07:51:06;100782.00;;;22.50
13570;BMP180;6856;51.460;7.158;2023-08-17T07:53:40;100791.00;;;22.50
13570;BMP180;6856;51.460;7.158;2023-08-17T07:56:14;100787.00;;;22.50
13570;BMP180;6856;51.460;7.158;2023-08-17T07:58:49;100805.00;;;22.50
13570;BMP180;6856;51.460;7.158;2023-08-17T08:01:22;100788.00;;;22.50
13570;BMP180;6856;51.460;7.158;2023-08-17T08:03:56;100804.00;;;22.50
13570;BMP180;6856;51.460;7.158;2023-08-17T08:06:33;100804.00;;;22.60
13570;BMP180;6856;51.460;7.158;2023-08-17T08:09:06;100811.00;;;22.50
13570;BMP180;6856;51.460;7.158;2023-08-17T08:11:40;100808.00;;;22.60
13570;BMP180;6856;51.460;7.158;2023-08-17T08:14:14;100802.00;;;22.60
13570;BMP180;6856;51.460;7.158;2023-08-17T08:16:47;100806.00;;;22.60
13570;BMP180;6856;51.460;7.158;2023-08-17T08:19:21;100814.00;;;22.50
13570;BMP180;6856;51.460;7.158;2023-08-17T08:21:57;100813.00;;;22.60
13570;BMP180;6856;51.460;7.158;2023-08-17T08:24:30;100820.00;;;22.60
13570;BMP180;6856;51.460;7.158;2023-08-17T08:27:10;100816.00;;;22.60
13570;BMP180;6856;51.460;7.158;2023-08-17T08:29:43;100817.00;;;22.60
13570;BMP180;6856;51.460;7.158;2023-08-17T08:32:18;100788.00;;;22.60
13570;BMP180;6856;51.460;7.158;2023-08-17T08:34:51;100804.00;;;22.60
13570;BMP180;6856;51.460;7.158;2023-08-17T08:37:27;100805.00;;;22.60
13570;BMP180;6856;51.460;7.158;2023-08-17T08:40:01;100811.00;;;22.60
13570;BMP180;6856;51.460;7.158;2023-08-17T08:42:35;100815.00;;;22.60
13570;BMP180;6856;51.460;7.158;2023-08-17T08:45:09;100815.00;;;22.70
13570;BMP180;6856;51.460;7.158;2023-08-17T08:47:45;100817.00;;;22.70
13570;BMP180;6856;51.460;7.158;2023-08-17T08:50:26;100815.00;;;22.70
13570;BMP180;6856;51.460;7.158;2023-08-17T08:53:13;100805.00;;;22.70
13570;BMP180;6856;51.460;7.158;2023-08-17T08:55:55;100815.00;;;22.70
13570;BMP180;6856;51.460;7.158;2023-08-17T08:58:31;100805.00;;;22.70
13570;BMP180;6856;51.460;7.158;2023-08-17T09:01:09;100809.00;;;22.80
13570;BMP180;6856;51.460;7.158;2023-08-17T09:03:46;100803.00;;;22.80
13570;BMP180;6856;51.460;7.158;2023-08-17T09:06:25;100809.00;;;22.80
13570;BMP180;6856;51.460;7.158;2023-08-17T09:09:02;100801.00;;;22.80
13570;BMP180;6856;51.460;7.158;2023-08-17T09:11:36;100805.00;;;22.90
13570;BMP180;6856;51.460;7.158;2023-08-17T09:14:16;100806.00;;;22.90
13570;BMP180;6856;51.460;7.158;2023-08-17T09:16:50;100797.00;;;22.90
13570;BMP180;6856;51.460;7.158;2023-08-17T09:19:23;100796.00;;;22.90
13570;BMP180;6856;51.460;7.158;2023-08-17T09:21:58;100789.00;;;23.00
13570;BMP180;6856;51.460;7.158;2023-08-17T09:24:37;100790.00;;;23.00
13570;BMP180;6856;51.460;7.158;2023-08-17T09:27:12;100784.00;;;23.00
13570;BMP180;6856;51.460;7.158;2023-08-17T09:29:46;100790.00;;;23.00
13570;BMP180;6856;51.460;7.158;2023-08-17T09:32:20;100791.00;;;23.10
13570;BMP180;6856;51.460;7.158;2023-08-17T09:34:54;100792.00;;;23.10
13570;BMP180;6856;51.460;7.158;2023-08-17T09:37:28;100789.00;;;23.10
13570;BMP180;6856;51.460;7.158;2023-08-17T09:40:04;100795.00;;;23.20
13570;BMP180;6856;51.460;7.158;2023-08-17T09:42:39;100798.00;;;23.20
13570;BMP180;6856;51.460;7.158;2023-08-17T09:45:13;100804.00;;;23.20
13570;BMP180;6856;51.460;7.158;2023-08-17T09:47:50;100801.00;;;23.20
13570;BMP180;6856;51.460;7.158;2023-08-17T09:50:24;100798.00;;;23.20
13570;BMP180;6856;51.460;7.158;2023-08-17T09:52:58;100793.00;;;23.30
13570;BMP180;6856;51.460;7.158;2023-08-17T09:55:33;100795.00;;;23.30
13570;BMP180;6856;51.460;7.158;2023-08-17T09:58:07;100790.00;;;23.30
13570;BMP180;6856;51.460;7.158;2023-08-17T10:00:44;100795.00;;;23.30
13570;BMP180;6856;51.460;7.158;2023-08-17T10:03:23;100793.00;;;23.30
13570;BMP180;6856;51.460;7.158;2023-08-17T10:06:05;100789.00;;;23.30
13570;BMP180;6856;51.460;7.158;2023-08-17T10:08:44;100784.00;;;23.30
13570;BMP180;6856;51.460;7.158;2023-08-17T10:11:22;100769.00;;;23.30
13570;BMP180;6856;51.460;7.158;2023-08-17T10:13:59;100778.00;;;23.30
13570;BMP180;6856;51.460;7.158;2023-08-17T10:16:42;100785.00;;;23.30
13570;BMP180;6856;51.460;7.158;2023-08-17T10:19:25;100789.00;;;23.40
13570;BMP180;6856;51.460;7.158;2023-08-17T10:22:12;100773.00;;;23.40
13570;BMP180;6856;51.460;7.158;2023-08-17T10:24:51;100782.00;;;23.40
13570;BMP180;6856;51.460;7.158;2023-08-17T10:27:27;100785.00;;;23.50
13570;BMP180;6856;51.460;7.158;2023-08-17T10:30:01;100783.00;;;23.50
13570;BMP180;6856;51.460;7.158;2023-08-17T10:32:42;100781.00;;;23.50
13570;BMP180;6856;51.460;7.158;2023-08-17T10:35:19;100785.00;;;23.60
13570;BMP180;6856;51.460;7.158;2023-08-17T10:37:53;100777.00;;;23.60
13570;BMP180;6856;51.460;7.158;2023-08-17T10:40:27;100785.00;;;23.70
13570;BMP180;6856;51.460;7.158;2023-08-17T10:43:03;100774.00;;;23.70
13570;BMP180;6856;51.460;7.158;2023-08-17T10:45:37;100783.00;;;23.70
13570;BMP180;6856;51.460;7.158;2023-08-17T10:48:28;100774.00;;;23.70
13570;BMP180;6856;51.460;7.158;2023-08-17T10:51:09;100777.00;;;23.80
13570;BMP180;6856;51.460;7.158;2023-08-17T10:53:45;100771.00;;;23.80
13570;BMP180;6856;51.460;7.158;2023-08-17T10:56:19;100770.00;;;23.90
13570;BMP180;6856;51.460;7.158;2023-08-17T10:58:59;100770.00;;;23.90
13570;BMP180;6856;51.460;7.158;2023-08-17T11:01:34;100776.00;;;23.90
13570;BMP180;6856;51.460;7.158;2023-08-17T11:04:16;100773.00;;;24.00
13570;BMP180;6856;51.460;7.158;2023-08-17T11:07:01;100775.00;;;24.10
13570;BMP180;6856;51.460;7.158;2023-08-17T11:09:37;100770.00;;;24.10
13570;BMP180;6856;51.460;7.158;2023-08-17T11:12:26;100774.00;;;24.10
13570;BMP180;6856;51.460;7.158;2023-08-17T11:15:01;100778.00;;;24.20
13570;BMP180;6856;51.460;7.158;2023-08-17T11:17:35;100768.00;;;24.20
13570;BMP180;6856;51.460;7.158;2023-08-17T11:20:10;100782.00;;;24.20
13570;BMP180;6856;51.460;7.158;2023-08-17T11:22:46;100775.00;;;24.30
13570;BMP180;6856;51.460;7.158;2023-08-17T11:25:21;100773.00;;;24.30
13570;BMP180;6856;51.460;7.158;2023-08-17T11:27:55;100764.00;;;24.40
13570;BMP180;6856;51.460;7.158;2023-08-17T11:30:30;100767.00;;;24.40
13570;BMP180;6856;51.460;7.158;2023-08-17T11:33:07;100765.00;;;24.40
13570;BMP180;6856;51.460;7.158;2023-08-17T11:35:41;100765.00;;;24.50
13570;BMP180;6856;51.460;7.158;2023-08-17T11:38:15;100773.00;;;24.50
13570;BMP180;6856;51.460;7.158;2023-08-17T11:40:49;100757.00;;;24.50
13570;BMP180;6856;51.460;7.158;2023-08-17T11:43:23;100767.00;;;24.50
13570;BMP180;6856;51.460;7.158;2023-08-17T11:45:59;100755.00;;;24.50
13570;BMP180;6856;51.460;7.158;2023-08-17T11:48:34;100772.00;;;24.50
13570;BMP180;6856;51.460;7.158;2023-08-17T11:51:08;100768.00;;;24.50
13570;BMP180;6856;51.460;7.158;2023-08-17T11:53:42;100771.00;;;24.50
13570;BMP180;6856;51.460;7.158;2023-08-17T11:56:20;100782.00;;;24.50
13570;BMP180;6856;51.460;7.158;2023-08-17T11:58:55;100782.00;;;24.50
13570;BMP180;6856;51.460;7.158;2023-08-17T12:01:33;100783.00;;;24.50
13570;BMP180;6856;51.460;7.158;2023-08-17T12:04:07;100778.00;;;24.50
13570;BMP180;6856;51.460;7.158;2023-08-17T12:06:44;100784.00;;;24.50
13570;BMP180;6856;51.460;7.158;2023-08-17T12:09:18;100771.00;;;24.50
13570;BMP180;6856;51.460;7.158;2023-08-17T12:11:59;100767.00;;;24.50
13570;BMP180;6856;51.460;7.158;2023-08-17T12:14:33;100781.00;;;24.50
13570;BMP180;6856;51.460;7.158;2023-08-17T12:17:14;100767.00;;;24.60
13570;BMP180;6856;51.460;7.158;2023-08-17T12:19:50;100783.00;;;24.60
13570;BMP180;6856;51.460;7.158;2023-08-17T12:22:27;100783.00;;;24.60
13570;BMP180;6856;51.460;7.158;2023-08-17T12:25:02;100784.00;;;24.60
13570;BMP180;6856;51.460;7.158;2023-08-17T12:27:36;100781.00;;;24.60
13570;BMP180;6856;51.460;7.158;2023-08-17T12:30:25;100779.00;;;24.60
13570;BMP180;6856;51.460;7.158;2023-08-17T12:33:00;100782.00;;;24.60
13570;BMP180;6856;51.460;7.158;2023-08-17T12:35:34;100782.00;;;24.60
13570;BMP180;6856;51.460;7.158;2023-08-17T12:38:08;100770.00;;;24.60
13570;BMP180;6856;51.460;7.158;2023-08-17T12:40:42;100779.00;;;24.60
13570;BMP180;6856;51.460;7.158;2023-08-17T12:43:16;100777.00;;;24.70
13570;BMP180;6856;51.460;7.158;2023-08-17T12:45:50;100783.00;;;24.60
13570;BMP180;6856;51.460;7.158;2023-08-17T12:48:25;100772.00;;;24.70
13570;BMP180;6856;51.460;7.158;2023-08-17T12:50:58;100772.00;;;24.70
13570;BMP180;6856;51.460;7.158;2023-08-17T12:53:34;100772.00;;;24.60
13570;BMP180;6856;51.460;7.158;2023-08-17T13:17:21;100765.00;;;21.80
13570;BMP180;6856;51.460;7.158;2023-08-17T13:20:03;100790.00;;;22.10
13570;BMP180;6856;51.460;7.158;2023-08-17T13:22:54;100775.00;;;22.50
13570;BMP180;6856;51.460;7.158;2023-08-17T13:26:00;100767.00;;;22.90
13570;BMP180;6856;51.460;7.158;2023-08-17T13:28:43;100780.00;;;23.20
13570;BMP180;6856;51.460;7.158;2023-08-17T13:31:27;100773.00;;;23.40
13570;BMP180;6856;51.460;7.158;2023-08-17T13:34:03;100781.00;;;23.60
13570;BMP180;6856;51.460;7.158;2023-08-17T13:36:38;100775.00;;;23.80
13570;BMP180;6856;51.460;7.158;2023-08-17T13:39:13;100787.00;;;23.90
13570;BMP180;6856;51.460;7.158;2023-08-17T13:41:47;100789.00;;;24.10
13570;BMP180;6856;51.460;7.158;2023-08-17T13:44:22;100787.00;;;24.20
13570;BMP180;6856;51.460;7.158;2023-08-17T13:47:00;100781.00;;;24.30
13570;BMP180;6856;51.460;7.158;2023-08-17T13:49:36;100774.00;;;24.40
13570;BMP180;6856;51.460;7.158;2023-08-17T13:52:10;100764.00;;;24.50
13570;BMP180;6856;51.460;7.158;2023-08-17T13:54:51;100781.00;;;24.60
13570;BMP180;6856;51.460;7.158;2023-08-17T13:57:29;100784.00;;;24.70
13570;BMP180;6856;51.460;7.158;2023-08-17T14:00:05;100781.00;;;24.80
13570;BMP180;6856;51.460;7.158;2023-08-17T14:02:42;100777.00;;;24.90
13570;BMP180;6856;51.460;7.158;2023-08-17T14:05:18;100781.00;;;24.90
13570;BMP180;6856;51.460;7.158;2023-08-17T14:07:52;100781.00;;;25.00
13570;BMP180;6856;51.460;7.158;2023-08-17T14:10:33;100785.00;;;25.00
13570;BMP180;6856;51.460;7.158;2023-08-17T14:13:11;100774.00;;;25.00
13570;BMP180;6856;51.460;7.158;2023-08-17T14:15:45;100781.00;;;25.00
13570;BMP180;6856;51.460;7.158;2023-08-17T14:18:20;100781.00;;;25.00
13570;BMP180;6856;51.460;7.158;2023-08-17T14:20:57;100775.00;;;25.10
13570;BMP180;6856;51.460;7.158;2023-08-17T14:23:31;100765.00;;;25.10
13570;BMP180;6856;51.460;7.158;2023-08-17T14:26:05;100759.00;;;25.10
13570;BMP180;6856;51.460;7.158;2023-08-17T14:28:39;100763.00;;;25.10
13570;BMP180;6856;51.460;7.158;2023-08-17T14:31:15;100742.00;;;25.10
13570;BMP180;6856;51.460;7.158;2023-08-17T14:33:51;100757.00;;;25.10
13570;BMP180;6856;51.460;7.158;2023-08-17T14:36:32;100739.00;;;25.10
13570;BMP180;6856;51.460;7.158;2023-08-17T16:15:26;100663.00;;;20.30
13570;BMP180;6856;51.460;7.158;2023-08-17T16:18:01;100662.00;;;20.70
13570;BMP180;6856;51.460;7.158;2023-08-17T16:20:35;100656.00;;;21.20
13570;BMP180;6856;51.460;7.158;2023-08-17T16:23:09;100657.00;;;21.60
13570;BMP180;6856;51.460;7.158;2023-08-17T16:25:44;100661.00;;;22.10
13570;BMP180;6856;51.460;7.158;2023-08-17T16:28:19;100655.00;;;22.40
13570;BMP180;6856;51.460;7.158;2023-08-17T16:30:57;100663.00;;;22.70
13570;BMP180;6856;51.460;7.158;2023-08-17T16:33:35;100664.00;;;23.00
13570;BMP180;6856;51.460;7.158;2023-08-17T16:36:13;100658.00;;;23.20
13570;BMP180;6856;51.460;7.158;2023-08-17T16:38:55;100627.00;;;23.40
13570;BMP180;6856;51.460;7.158;2023-08-17T16:41:29;100641.00;;;23.60
13570;BMP180;6856;51.460;7.158;2023-08-17T16:44:04;100649.00;;;23.70
13570;BMP180;6856;51.460;7.158;2023-08-17T16:46:41;100651.00;;;23.80
13570;BMP180;6856;51.460;7.158;2023-08-17T16:49:15;100654.00;;;23.90
13570;BMP180;6856;51.460;7.158;2023-08-17T16:51:51;100648.00;;;24.00
13570;BMP180;6856;51.460;7.158;2023-08-17T16:54:49;100644.00;;;24.10